createdAt,value
2023-02-17T00:00:56.570Z,10.00
2023-02-17T00:03:24.701Z,9.90
2023-02-17T00:05:54.695Z,10.00
2023-02-17T00:08:22.753Z,10.00
2023-02-17T00:10:58.385Z,10.00
2023-02-17T00:13:26.434Z,10.00
2023-02-17T00:15:55.315Z,10.00
2023-02-17T00:18:23.718Z,10.00
2023-02-17T00:20:52.274Z,10.00
2023-02-17T00:23:21.733Z,10.00
2023-02-17T00:25:50.479Z,10.00
2023-02-17T00:28:18.616Z,10.00
2023-02-17T00:30:47.340Z,10.00
2023-02-17T00:33:15.412Z,10.00
2023-02-17T00:35:43.947Z,10.00
2023-02-17T00:38:12.013Z,10.00
2023-02-17T00:40:42.575Z,10.10
2023-02-17T00:43:11.022Z,10.10
2023-02-17T00:45:39.239Z,10.10
2023-02-17T00:48:07.690Z,10.10
2023-02-17T00:50:35.717Z,10.00
2023-02-17T00:53:06.596Z,10.10
2023-02-17T00:55:34.743Z,10.00
2023-02-17T00:58:04.372Z,9.90
2023-02-17T01:00:32.862Z,9.90
2023-02-17T01:03:02.177Z,9.80
2023-02-17T01:05:30.630Z,9.80
2023-02-17T01:07:58.723Z,9.70
2023-02-17T01:10:28.875Z,9.70
2023-02-17T01:12:57.418Z,9.60
2023-02-17T01:15:27.202Z,9.60
2023-02-17T01:17:55.192Z,9.60
2023-02-17T01:20:23.656Z,9.60
2023-02-17T01:22:51.691Z,9.60
2023-02-17T01:25:20.289Z,9.50
2023-02-17T01:27:48.469Z,9.60
2023-02-17T01:30:17.304Z,9.60
2023-02-17T01:32:48.232Z,9.50
2023-02-17T01:35:16.749Z,9.50
2023-02-17T01:37:46.154Z,9.40
2023-02-17T01:40:15.505Z,9.40
2023-02-17T01:42:43.531Z,9.40
2023-02-17T01:45:39.159Z,9.40
2023-02-17T01:48:10.969Z,9.40
2023-02-17T01:50:41.938Z,9.30
2023-02-17T01:53:10.456Z,9.40
2023-02-17T01:55:39.832Z,9.50
2023-02-17T01:58:08.995Z,9.50
2023-02-17T02:00:37.932Z,9.40
2023-02-17T02:03:13.894Z,9.50
2023-02-17T02:05:42.897Z,9.50
2023-02-17T02:08:11.689Z,9.60
2023-02-17T02:10:40.074Z,9.50
2023-02-17T02:13:08.682Z,9.50
2023-02-17T02:15:40.167Z,9.50
2023-02-17T02:18:23.712Z,9.50
2023-02-17T02:21:08.713Z,9.50
2023-02-17T02:23:53.677Z,9.40
2023-02-17T02:26:34.653Z,9.40
2023-02-17T02:29:17.196Z,9.50
2023-02-17T02:31:47.100Z,9.50
2023-02-17T02:34:18.056Z,9.60
2023-02-17T02:36:49.692Z,9.60
2023-02-17T02:39:18.907Z,9.60
2023-02-17T02:41:48.881Z,9.70
2023-02-17T02:44:19.744Z,9.60
2023-02-17T02:46:56.846Z,9.60
2023-02-17T02:49:26.810Z,9.70
2023-02-17T02:51:56.380Z,9.60
2023-02-17T02:54:30.726Z,9.60
2023-02-17T02:57:21.603Z,9.60
2023-02-17T02:59:59.567Z,9.70
2023-02-17T03:02:30.614Z,9.70
2023-02-17T03:05:02.812Z,9.70
2023-02-17T03:07:32.756Z,9.70
2023-02-17T03:10:01.869Z,9.70
2023-02-17T03:12:31.204Z,9.70
2023-02-17T03:15:02.045Z,9.70
2023-02-17T03:17:31.606Z,9.70
2023-02-17T03:20:02.664Z,9.80
2023-02-17T03:22:34.684Z,9.70
2023-02-17T03:25:03.269Z,9.70
2023-02-17T03:27:31.666Z,9.70
2023-02-17T03:30:00.110Z,9.70
2023-02-17T03:32:28.688Z,9.80
2023-02-17T03:34:56.784Z,9.70
2023-02-17T03:37:26.966Z,9.70
2023-02-17T03:39:55.042Z,9.70
2023-02-17T03:42:23.525Z,9.70
2023-02-17T03:44:51.765Z,9.80
2023-02-17T03:47:20.173Z,9.70
2023-02-17T03:49:48.231Z,9.80
2023-02-17T03:52:16.732Z,9.80
2023-02-17T03:54:46.359Z,9.90
2023-02-17T03:57:14.770Z,9.90
2023-02-17T03:59:42.795Z,9.90
2023-02-17T04:02:11.303Z,9.90
2023-02-17T04:04:39.493Z,9.90
2023-02-17T04:07:07.917Z,10.00
2023-02-17T04:09:36.028Z,10.00
2023-02-17T04:12:06.356Z,10.00
2023-02-17T04:14:34.837Z,10.00
2023-02-17T04:17:03.090Z,10.00
2023-02-17T04:19:31.167Z,10.00
2023-02-17T04:21:59.588Z,10.00
2023-02-17T04:24:27.670Z,10.00
2023-02-17T04:26:55.802Z,10.00
2023-02-17T04:29:25.188Z,9.90
2023-02-17T04:31:53.949Z,9.90
2023-02-17T04:34:22.076Z,10.00
2023-02-17T04:36:50.522Z,10.00
2023-02-17T04:39:18.649Z,10.00
2023-02-17T04:41:47.176Z,9.90
2023-02-17T04:44:15.239Z,9.90
2023-02-17T04:46:45.015Z,9.80
2023-02-17T04:49:13.136Z,9.90
2023-02-17T04:51:41.450Z,9.90
2023-02-17T04:54:09.549Z,9.90
2023-02-17T04:56:37.986Z,10.00
2023-02-17T04:59:06.042Z,10.00
2023-02-17T05:01:34.465Z,10.00
2023-02-17T05:04:03.863Z,10.00
2023-02-17T05:06:32.378Z,10.00
2023-02-17T05:09:01.108Z,10.00
2023-02-17T05:11:29.717Z,10.00
2023-02-17T05:13:58.033Z,10.00
2023-02-17T05:16:26.296Z,10.10
2023-02-17T05:18:54.773Z,10.10
2023-02-17T05:21:24.210Z,10.10
2023-02-17T05:23:52.848Z,10.10
2023-02-17T05:26:20.897Z,10.10
2023-02-17T05:28:49.357Z,10.00
2023-02-17T05:31:17.512Z,10.00
2023-02-17T05:33:46.283Z,10.00
2023-02-17T05:36:14.362Z,10.00
2023-02-17T05:38:46.317Z,10.00
2023-02-17T05:41:14.368Z,10.00
2023-02-17T05:43:43.044Z,10.00
2023-02-17T05:46:11.290Z,10.00
2023-02-17T05:48:39.883Z,10.00
2023-02-17T05:51:08.994Z,10.00
2023-02-17T05:53:37.707Z,10.00
2023-02-17T05:56:07.889Z,10.00
2023-02-17T05:58:36.853Z,10.00
2023-02-17T06:01:08.304Z,10.00
2023-02-17T06:03:36.912Z,10.10
2023-02-17T06:06:05.524Z,10.10
2023-02-17T06:08:34.342Z,10.20
2023-02-17T06:11:04.374Z,10.20
2023-02-17T06:13:34.384Z,10.20
2023-02-17T06:16:02.576Z,10.30
2023-02-17T06:18:30.945Z,10.40
2023-02-17T06:20:59.220Z,10.40
2023-02-17T06:23:28.051Z,10.40
2023-02-17T06:25:56.117Z,10.30
2023-02-17T06:28:24.861Z,10.30
2023-02-17T06:30:54.358Z,10.30
2023-02-17T06:33:23.066Z,10.20
2023-02-17T06:35:51.369Z,10.10
2023-02-17T06:38:19.789Z,10.10
2023-02-17T06:40:48.322Z,10.10
2023-02-17T06:43:18.430Z,10.00
2023-02-17T06:45:47.029Z,10.00
2023-02-17T06:48:16.473Z,10.00
2023-02-17T06:50:45.111Z,10.00
2023-02-17T06:53:13.329Z,10.10
2023-02-17T06:55:41.886Z,10.10
2023-02-17T06:58:09.952Z,10.10
2023-02-17T07:00:38.523Z,10.10
2023-02-17T07:03:06.705Z,10.10
2023-02-17T07:05:37.147Z,10.20
2023-02-17T07:08:05.503Z,10.20
2023-02-17T07:10:33.935Z,10.10
2023-02-17T07:13:02.072Z,10.10
2023-02-17T07:15:30.099Z,10.20
2023-02-17T07:17:58.413Z,10.20
2023-02-17T07:20:26.495Z,10.30
2023-02-17T07:22:56.343Z,10.30
2023-02-17T07:25:24.348Z,10.40
2023-02-17T07:27:52.968Z,10.40
2023-02-17T07:30:21.121Z,10.40
2023-02-17T07:32:49.505Z,10.50
2023-02-17T07:35:18.031Z,10.60
2023-02-17T07:37:46.846Z,10.70
2023-02-17T07:40:16.215Z,10.70
2023-02-17T07:42:44.798Z,10.80
2023-02-17T07:45:12.911Z,10.80
2023-02-17T07:47:41.407Z,10.90
2023-02-17T07:50:09.952Z,10.90
2023-02-17T07:52:41.088Z,10.90
2023-02-17T07:55:09.261Z,11.00
2023-02-17T07:57:39.347Z,11.00
2023-02-17T08:00:10.557Z,11.10
2023-02-17T08:02:42.455Z,11.10
2023-02-17T08:05:10.505Z,11.00
2023-02-17T08:07:38.769Z,10.90
2023-02-17T08:10:24.327Z,10.90
2023-02-17T08:13:19.560Z,11.00
2023-02-17T08:15:47.632Z,11.00
2023-02-17T08:18:15.952Z,11.00
2023-02-17T08:20:44.126Z,11.00
2023-02-17T08:23:12.236Z,11.00
2023-02-17T08:25:40.522Z,11.10
2023-02-17T08:28:12.321Z,11.10
2023-02-17T08:30:40.728Z,11.00
2023-02-17T08:33:08.883Z,10.90
2023-02-17T08:35:37.316Z,10.80
2023-02-17T08:38:05.378Z,10.80
2023-02-17T08:40:33.986Z,10.80
2023-02-17T08:43:03.607Z,10.80
2023-02-17T08:45:34.102Z,10.90
2023-02-17T08:48:02.141Z,10.90
2023-02-17T08:50:31.074Z,11.00
2023-02-17T08:52:59.182Z,11.00
2023-02-17T08:55:28.349Z,10.90
2023-02-17T08:57:57.608Z,10.90
2023-02-17T09:00:26.204Z,10.90
2023-02-17T09:02:55.740Z,10.90
2023-02-17T09:05:24.266Z,10.90
2023-02-17T09:07:52.379Z,10.90
2023-02-17T09:10:20.907Z,10.90
2023-02-17T09:12:49.040Z,10.90
2023-02-17T09:15:17.562Z,10.90
2023-02-17T09:17:45.662Z,10.90
2023-02-17T09:20:24.460Z,10.90
2023-02-17T09:22:53.404Z,10.90
2023-02-17T09:25:21.589Z,10.90
2023-02-17T09:27:49.876Z,11.00
2023-02-17T09:30:18.632Z,11.00
2023-02-17T09:32:46.818Z,11.00
2023-02-17T09:35:17.472Z,11.10
2023-02-17T09:37:45.606Z,11.20
2023-02-17T09:40:18.741Z,11.20
2023-02-17T09:42:46.923Z,11.20
2023-02-17T09:45:17.208Z,11.20
2023-02-17T09:47:48.064Z,11.30
2023-02-17T09:50:18.310Z,11.40
2023-02-17T09:52:53.819Z,11.50
2023-02-17T09:55:24.679Z,11.60
2023-02-17T09:57:56.879Z,11.70
2023-02-17T10:00:26.728Z,11.90
2023-02-17T10:02:59.207Z,12.00
2023-02-17T10:05:31.040Z,12.00
2023-02-17T10:08:03.046Z,12.10
2023-02-17T10:10:35.703Z,12.30
2023-02-17T10:13:05.618Z,12.40
2023-02-17T10:15:36.618Z,12.60
2023-02-17T10:18:07.466Z,12.70
2023-02-17T10:20:41.028Z,12.80
2023-02-17T10:23:11.993Z,12.80
2023-02-17T10:25:47.961Z,12.90
2023-02-17T10:28:19.640Z,13.00
2023-02-17T10:30:54.036Z,13.00
2023-02-17T10:33:24.860Z,13.20
2023-02-17T10:35:57.143Z,13.50
2023-02-17T10:38:34.627Z,13.70
2023-02-17T10:41:04.574Z,14.30
2023-02-17T10:43:33.521Z,14.70
2023-02-17T10:46:02.950Z,14.70
2023-02-17T10:48:35.041Z,14.60
2023-02-17T10:51:04.558Z,15.20
2023-02-17T10:53:34.161Z,15.80
2023-02-17T10:56:04.921Z,15.80
2023-02-17T10:58:34.892Z,15.50
2023-02-17T11:01:05.650Z,15.10
2023-02-17T11:03:34.691Z,15.00
2023-02-17T11:06:05.566Z,14.70
2023-02-17T11:08:35.894Z,14.60
2023-02-17T11:11:05.518Z,14.60
2023-02-17T11:13:39.425Z,14.70
2023-02-17T11:16:08.013Z,14.60
2023-02-17T11:18:39.011Z,14.50
2023-02-17T11:21:09.730Z,14.30
2023-02-17T11:23:47.893Z,14.40
2023-02-17T11:26:18.517Z,14.60
2023-02-17T11:28:47.157Z,14.70
2023-02-17T11:31:23.888Z,14.90
2023-02-17T11:33:52.466Z,15.20
2023-02-17T11:36:26.237Z,15.50
2023-02-17T11:38:55.199Z,15.40
2023-02-17T11:41:23.348Z,15.20
2023-02-17T11:43:55.213Z,14.90
2023-02-17T11:46:26.590Z,14.60
2023-02-17T11:49:08.463Z,14.40
2023-02-17T11:51:46.410Z,14.30
2023-02-17T11:54:22.213Z,14.30
2023-02-17T11:56:57.482Z,14.20
2023-02-17T11:59:33.480Z,14.10
2023-02-17T12:02:12.368Z,14.10
2023-02-17T12:04:43.105Z,14.00
2023-02-17T12:07:21.524Z,14.30
2023-02-17T12:09:56.088Z,15.30
2023-02-17T12:12:27.885Z,15.70
2023-02-17T12:15:04.272Z,15.60
2023-02-17T12:17:38.924Z,15.20
2023-02-17T12:20:16.120Z,14.90
2023-02-17T12:22:48.091Z,14.70
2023-02-17T12:25:23.967Z,14.40
2023-02-17T12:28:01.086Z,14.30
2023-02-17T12:30:36.010Z,14.30
2023-02-17T12:33:11.424Z,14.30
2023-02-17T12:35:46.678Z,14.20
2023-02-17T12:38:18.323Z,14.10
2023-02-17T12:40:49.073Z,14.10
2023-02-17T12:43:22.948Z,14.00
2023-02-17T12:45:52.766Z,14.00
2023-02-17T12:48:26.067Z,14.00
2023-02-17T12:50:57.539Z,14.00
2023-02-17T12:53:32.533Z,14.00
2023-02-17T12:56:02.006Z,14.00
2023-02-17T12:58:30.824Z,14.00
2023-02-17T13:01:01.967Z,13.90
2023-02-17T13:03:30.621Z,13.90
2023-02-17T13:06:02.771Z,13.90
2023-02-17T13:08:37.631Z,14.00
2023-02-17T13:11:07.361Z,13.90
2023-02-17T13:13:35.957Z,13.90
2023-02-17T13:16:06.278Z,13.80
2023-02-17T13:18:35.718Z,13.70
2023-02-17T13:21:16.497Z,13.70
2023-02-17T13:23:46.836Z,13.70
2023-02-17T13:26:36.380Z,13.70
2023-02-17T13:29:10.465Z,13.50
2023-02-17T13:31:49.924Z,13.50
2023-02-17T13:34:28.701Z,13.40
2023-02-17T13:36:57.874Z,13.30
2023-02-17T13:39:35.011Z,13.30
2023-02-17T13:42:03.632Z,13.30
2023-02-17T13:44:33.721Z,13.30
2023-02-17T13:47:04.010Z,13.30
2023-02-17T13:49:35.100Z,13.30
2023-02-17T13:52:18.955Z,13.30
2023-02-17T13:54:58.502Z,13.30
2023-02-17T13:57:28.327Z,13.30
2023-02-17T14:00:06.067Z,13.30
2023-02-17T14:02:46.782Z,13.30
2023-02-17T14:05:19.120Z,13.30
2023-02-17T14:07:48.342Z,13.20
2023-02-17T14:10:19.614Z,13.30
2023-02-17T14:12:49.110Z,13.20
2023-02-17T14:15:17.662Z,13.20
2023-02-17T14:17:46.287Z,13.20
2023-02-17T14:20:28.366Z,13.30
2023-02-17T14:23:05.189Z,13.30
2023-02-17T14:25:35.728Z,13.30
2023-02-17T14:28:04.947Z,13.30
2023-02-17T14:30:34.052Z,13.20
2023-02-17T14:33:03.903Z,13.30
2023-02-17T14:35:33.865Z,13.30
2023-02-17T14:38:10.763Z,13.30
2023-02-17T14:40:40.368Z,13.30
2023-02-17T14:43:08.966Z,13.30
2023-02-17T14:45:37.001Z,13.30
2023-02-17T14:48:05.789Z,13.20
2023-02-17T14:50:33.947Z,13.20
2023-02-17T14:53:02.383Z,13.20
2023-02-17T14:55:34.177Z,13.20
2023-02-17T14:58:03.972Z,13.20
2023-02-17T15:00:32.802Z,13.20
2023-02-17T15:03:00.838Z,13.20
2023-02-17T15:05:30.044Z,13.10
2023-02-17T15:08:00.857Z,13.10
2023-02-17T15:10:30.331Z,13.00
2023-02-17T15:12:58.764Z,13.00
2023-02-17T15:15:29.134Z,13.00
2023-02-17T15:17:57.190Z,12.90
2023-02-17T15:20:25.994Z,13.00
2023-02-17T15:22:54.543Z,12.90
2023-02-17T15:25:23.453Z,13.00
2023-02-17T15:27:51.918Z,12.90
2023-02-17T15:30:21.361Z,12.90
2023-02-17T15:32:50.873Z,12.90
2023-02-17T15:35:20.810Z,12.90
2023-02-17T15:37:49.213Z,12.90
2023-02-17T15:40:19.432Z,12.90
2023-02-17T15:42:50.064Z,12.90
2023-02-17T15:45:20.496Z,12.80
2023-02-17T15:47:49.418Z,12.80
2023-02-17T15:50:20.704Z,12.80
2023-02-17T15:52:49.734Z,12.80
2023-02-17T15:55:19.160Z,12.80
2023-02-17T15:57:48.536Z,12.80
2023-02-17T16:00:19.024Z,12.80
2023-02-17T16:02:47.089Z,12.80
2023-02-17T16:05:16.178Z,12.80
2023-02-17T16:07:45.785Z,12.70
2023-02-17T16:10:15.932Z,12.70
2023-02-17T16:12:44.193Z,12.70
2023-02-17T16:15:14.604Z,12.60
2023-02-17T16:17:42.684Z,12.60
2023-02-17T16:20:18.852Z,12.60
2023-02-17T16:22:48.755Z,12.60
2023-02-17T16:25:18.124Z,12.60
2023-02-17T16:27:46.972Z,12.60
2023-02-17T16:30:17.394Z,12.60
2023-02-17T16:32:45.514Z,12.50
2023-02-17T16:35:14.879Z,12.50
2023-02-17T16:37:43.370Z,12.40
2023-02-17T16:40:17.528Z,12.50
2023-02-17T16:42:45.602Z,12.40
2023-02-17T16:45:33.343Z,12.40
2023-02-17T16:48:09.977Z,12.40
2023-02-17T16:50:42.023Z,12.40
2023-02-17T16:53:12.836Z,12.30
2023-02-17T16:55:43.042Z,12.30
2023-02-17T16:58:15.080Z,12.30
2023-02-17T17:00:44.040Z,12.30
2023-02-17T17:03:12.451Z,12.20
2023-02-17T17:05:42.794Z,12.20
2023-02-17T17:08:12.534Z,12.20
2023-02-17T17:10:41.968Z,12.20
2023-02-17T17:13:10.940Z,12.10
2023-02-17T17:15:40.993Z,12.10
2023-02-17T17:18:10.556Z,12.00
2023-02-17T17:20:41.687Z,12.00
2023-02-17T17:23:12.560Z,12.00
2023-02-17T17:25:43.224Z,12.00
2023-02-17T17:28:13.802Z,12.00
2023-02-17T17:30:41.988Z,12.00
2023-02-17T17:33:10.416Z,12.00
2023-02-17T17:35:38.697Z,12.00
2023-02-17T17:38:07.359Z,12.00
2023-02-17T17:40:48.170Z,12.00
2023-02-17T17:43:20.174Z,12.00
2023-02-17T17:45:48.786Z,12.00
2023-02-17T17:48:17.750Z,11.90
2023-02-17T17:50:46.185Z,11.90
2023-02-17T17:53:14.970Z,11.90
2023-02-17T17:55:43.065Z,11.90
2023-02-17T17:58:11.464Z,11.90
2023-02-17T18:00:40.924Z,11.90
2023-02-17T18:03:09.325Z,11.80
2023-02-17T18:05:37.997Z,11.80
2023-02-17T18:08:06.466Z,11.70
2023-02-17T18:10:35.078Z,11.70
2023-02-17T18:13:03.199Z,11.70
2023-02-17T18:15:31.759Z,11.60
2023-02-17T18:18:01.195Z,11.60
2023-02-17T18:20:29.769Z,11.60
2023-02-17T18:22:57.994Z,11.60
2023-02-17T18:25:26.524Z,11.50
2023-02-17T18:27:56.229Z,11.50
2023-02-17T18:30:25.120Z,11.50
2023-02-17T18:32:53.516Z,11.50
2023-02-17T18:35:23.268Z,11.50
2023-02-17T18:37:51.352Z,11.50
2023-02-17T18:40:21.522Z,11.50
2023-02-17T18:42:49.677Z,11.50
2023-02-17T18:45:18.168Z,11.50
2023-02-17T18:47:46.500Z,11.50
2023-02-17T18:50:15.339Z,11.60
2023-02-17T18:52:44.983Z,11.60
2023-02-17T18:55:13.999Z,11.50
2023-02-17T18:57:42.868Z,11.60
2023-02-17T19:00:14.101Z,11.60
2023-02-17T19:02:42.243Z,11.60
2023-02-17T19:05:11.779Z,11.70
2023-02-17T19:07:40.623Z,11.60
2023-02-17T19:10:11.232Z,11.70
2023-02-17T19:12:40.958Z,11.70
2023-02-17T19:15:09.154Z,11.70
2023-02-17T19:17:37.718Z,11.80
2023-02-17T19:20:06.342Z,11.80
2023-02-17T19:22:36.154Z,11.80
2023-02-17T19:25:04.990Z,11.80
2023-02-17T19:27:34.705Z,11.80
2023-02-17T19:30:02.829Z,11.80
2023-02-17T19:32:31.653Z,11.90
2023-02-17T19:34:59.783Z,11.90
2023-02-17T19:37:28.533Z,11.90
2023-02-17T19:39:56.658Z,11.90
2023-02-17T19:42:24.892Z,11.90
2023-02-17T19:44:54.333Z,11.90
2023-02-17T19:47:22.808Z,11.90
2023-02-17T19:49:50.910Z,11.90
2023-02-17T19:52:19.874Z,11.90
2023-02-17T19:54:49.651Z,11.90
2023-02-17T19:57:18.658Z,11.90
2023-02-17T19:59:46.770Z,11.90
2023-02-17T20:02:16.654Z,11.90
2023-02-17T20:04:45.547Z,11.90
2023-02-17T20:07:14.550Z,11.90
2023-02-17T20:09:43.390Z,11.90
2023-02-17T20:12:11.424Z,11.90
2023-02-17T20:14:39.932Z,11.90
2023-02-17T20:17:08.258Z,11.90
2023-02-17T20:19:39.217Z,11.90
2023-02-17T20:22:07.493Z,11.90
2023-02-17T20:24:37.717Z,11.90
2023-02-17T20:27:05.792Z,11.90
2023-02-17T20:29:35.582Z,11.90
2023-02-17T20:32:04.413Z,11.90
2023-02-17T20:34:33.436Z,11.90
2023-02-17T20:37:03.043Z,11.90
2023-02-17T20:39:31.460Z,11.90
2023-02-17T20:42:00.393Z,12.00
2023-02-17T20:44:29.236Z,12.00
2023-02-17T20:46:57.428Z,12.00
2023-02-17T20:49:26.211Z,12.00
2023-02-17T20:51:54.329Z,12.10
2023-02-17T20:54:25.577Z,12.10
2023-02-17T20:56:53.808Z,12.20
2023-02-17T20:59:22.360Z,12.10
2023-02-17T21:01:50.834Z,12.10
2023-02-17T21:04:19.016Z,12.10
2023-02-17T21:06:48.097Z,12.20
2023-02-17T21:09:16.965Z,12.10
2023-02-17T21:11:47.808Z,12.10
2023-02-17T21:14:16.106Z,12.10
2023-02-17T21:16:45.137Z,12.10
2023-02-17T21:19:13.428Z,12.10
2023-02-17T21:21:42.161Z,12.10
2023-02-17T21:24:10.225Z,12.10
2023-02-17T21:26:38.564Z,12.10
2023-02-17T21:29:08.023Z,12.10
2023-02-17T21:31:37.238Z,12.10
2023-02-17T21:34:05.875Z,12.10
2023-02-17T21:36:34.175Z,12.10
2023-02-17T21:39:03.743Z,12.10
2023-02-17T21:41:32.766Z,12.10
2023-02-17T21:44:18.507Z,12.10
2023-02-17T21:46:48.286Z,12.10
2023-02-17T21:49:16.382Z,12.10
2023-02-17T21:51:44.680Z,12.10
2023-02-17T21:54:12.713Z,12.10
2023-02-17T21:59:27.763Z,12.10
2023-02-17T22:01:57.329Z,12.10
2023-02-17T22:04:28.036Z,12.00
2023-02-17T22:06:56.304Z,12.00
2023-02-17T22:09:24.576Z,12.10
2023-02-17T22:11:52.616Z,12.10
2023-02-17T22:14:21.841Z,12.10
2023-02-17T22:16:50.009Z,12.10
2023-02-17T22:19:21.524Z,12.20
2023-02-17T22:21:49.931Z,12.20
2023-02-17T22:24:20.847Z,12.20
2023-02-17T22:26:49.351Z,12.20
2023-02-17T22:29:17.768Z,12.20
2023-02-17T22:31:46.773Z,12.20
2023-02-17T22:34:15.920Z,12.20
2023-02-17T22:36:45.368Z,12.20
2023-02-17T22:39:13.853Z,12.10
2023-02-17T22:41:42.049Z,12.10
2023-02-17T22:44:10.128Z,12.20
2023-02-17T22:46:38.658Z,12.10
2023-02-17T22:49:06.713Z,12.20
2023-02-17T22:51:36.218Z,12.10
2023-02-17T22:54:06.131Z,12.20
2023-02-17T22:56:34.967Z,12.20
2023-02-17T22:59:04.364Z,12.10
2023-02-17T23:01:34.764Z,12.10
2023-02-17T23:04:03.326Z,12.00
2023-02-17T23:06:32.783Z,12.00
2023-02-17T23:09:01.493Z,12.00
2023-02-17T23:11:51.074Z,12.00
2023-02-17T23:14:20.612Z,12.00
2023-02-17T23:16:49.015Z,12.00
2023-02-17T23:19:18.665Z,11.90
2023-02-17T23:21:47.397Z,11.90
2023-02-17T23:24:15.878Z,11.90
2023-02-17T23:26:45.438Z,11.90
2023-02-17T23:29:14.076Z,11.90
2023-02-17T23:31:42.392Z,11.80
2023-02-17T23:34:12.790Z,11.80
2023-02-17T23:36:40.988Z,11.90
2023-02-17T23:39:09.484Z,11.80
2023-02-17T23:41:38.200Z,11.80
2023-02-17T23:44:08.848Z,11.80
2023-02-17T23:46:37.088Z,11.80
2023-02-17T23:49:06.317Z,11.70
2023-02-17T23:51:34.626Z,11.80
2023-02-17T23:54:03.096Z,11.70
2023-02-17T23:56:32.324Z,11.70
2023-02-17T23:59:01.475Z,11.70
